Time;durP1;ratioP1;P1;durP2;ratioP2;P2;SDS_P1;SDS_P2;PMS_P1;PMS_P2;Temp;Humidity;BMP_temperature;BMP_pressure;BME280_temperature;BME280_humidity;BME280_pressure;Samples;Min_cycle;Max_cycle;Signal;HPM_P1;HPM_P2
2021/08/10 00:00:48;;;;;;;1.97;1.87;;;;;;;17.39;66.20;96977.31;5031108;28;20547;-63
2021/08/10 00:03:13;;;;;;;4.77;2.27;;;;;;;17.24;66.74;96965.91;5030686;28;20194;-62
2021/08/10 00:05:39;;;;;;;2.03;1.77;;;;;;;17.20;66.70;96970.16;5030692;28;20245;-62
2021/08/10 00:08:05;;;;;;;2.23;1.70;;;;;;;17.18;66.88;96962.47;5029644;28;20674;-63
2021/08/10 00:10:31;;;;;;;4.03;2.20;;;;;;;17.18;66.56;96965.13;5030153;28;20178;-62
2021/08/10 00:12:57;;;;;;;1.90;1.80;;;;;;;17.25;66.65;96968.31;5031228;28;20175;-63
2021/08/10 00:15:22;;;;;;;2.07;1.87;;;;;;;17.26;66.68;96969.91;5029895;28;20213;-63
2021/08/10 00:17:48;;;;;;;2.87;2.00;;;;;;;17.30;66.32;96970.97;5030852;28;20204;-63
2021/08/10 00:20:13;;;;;;;1.73;1.63;;;;;;;17.21;66.76;96964.59;5030543;28;20196;-63
2021/08/10 00:22:39;;;;;;;2.10;1.90;;;;;;;17.18;66.62;96964.31;5030167;28;20197;-63
2021/08/10 00:25:06;;;;;;;1.97;1.77;;;;;;;17.23;66.47;96965.13;5032625;28;20191;-63
2021/08/10 00:27:31;;;;;;;1.97;1.70;;;;;;;17.13;66.84;96961.66;5034636;28;20189;-62
2021/08/10 00:29:57;;;;;;;2.97;1.77;;;;;;;17.14;66.62;96960.63;5032333;28;20191;-63
2021/08/10 00:32:22;;;;;;;4.20;1.80;;;;;;;17.19;66.37;96960.63;5032425;28;20212;-63
2021/08/10 00:34:48;;;;;;;1.70;1.60;;;;;;;17.18;66.39;96959.81;5033848;28;20571;-63
2021/08/10 00:37:13;;;;;;;2.57;1.60;;;;;;;17.11;66.74;96961.91;5033306;28;20190;-63
2021/08/10 00:39:38;;;;;;;3.20;2.00;;;;;;;17.12;66.84;96952.13;5032518;28;20242;-63
2021/08/10 00:42:05;;;;;;;2.37;1.90;;;;;;;17.13;67.16;96961.66;5034128;28;20297;-63
2021/08/10 00:44:30;;;;;;;2.67;2.00;;;;;;;17.04;67.83;96958.75;5032742;28;20190;-63
2021/08/10 00:46:56;;;;;;;2.33;2.10;;;;;;;17.21;67.46;96961.16;5032765;28;20257;-64
2021/08/10 00:49:22;;;;;;;2.23;2.03;;;;;;;17.01;68.24;96965.34;5033333;28;20272;-62
2021/08/10 00:51:50;;;;;;;3.97;2.07;;;;;;;16.97;68.50;96960.84;5034189;28;20589;-62
2021/08/10 00:54:15;;;;;;;1.90;1.80;;;;;;;17.02;68.43;96956.38;5015023;28;20182;-61
2021/08/10 00:56:41;;;;;;;2.37;2.13;;;;;;;16.92;68.96;96947.59;5016004;28;20277;-64
2021/08/10 00:59:07;;;;;;;2.37;2.17;;;;;;;16.99;68.74;96954.25;5032259;28;20174;-61
2021/08/10 01:01:33;;;;;;;1.93;1.80;;;;;;;16.84;69.18;96954.19;5033491;28;20178;-61
2021/08/10 01:03:58;;;;;;;2.93;2.13;;;;;;;16.86;69.08;96944.16;5033570;28;20265;-61
2021/08/10 01:07:02;;;;;;;4.13;1.83;;;;;;;17.02;68.47;96951.06;5032644;28;20338;-61
2021/08/10 01:09:36;;;;;;;2.27;1.60;;;;;;;16.85;69.21;96953.16;5031727;28;20190;-61
2021/08/10 01:12:14;;;;;;;2.80;2.03;;;;;;;16.82;69.27;96958.19;5032810;28;20187;-62
2021/08/10 01:14:52;;;;;;;2.77;1.80;;;;;;;16.79;69.39;96953.41;5025029;28;20194;-62
2021/08/10 01:17:26;;;;;;;1.83;1.73;;;;;;;16.85;69.16;96942.56;5032931;28;20174;-62
2021/08/10 01:20:04;;;;;;;2.37;2.10;;;;;;;16.94;68.99;96946.28;5034041;28;20175;-62
2021/08/10 01:22:30;;;;;;;3.63;1.90;;;;;;;16.77;69.65;96943.09;5031158;28;20698;-62
2021/08/10 01:25:11;;;;;;;2.10;1.90;;;;;;;16.81;69.61;96946.81;5032140;28;20198;-62
2021/08/10 01:27:42;;;;;;;2.23;1.60;;;;;;;16.76;70.05;96940.69;5033645;28;20171;-62
2021/08/10 01:30:13;;;;;;;2.83;2.00;;;;;;;16.77;69.83;96943.09;5031067;28;20179;-62
2021/08/10 01:32:43;;;;;;;2.53;2.00;;;;;;;16.72;70.18;96944.94;5033025;28;20628;-62
2021/08/10 01:35:09;;;;;;;3.57;2.20;;;;;;;16.64;70.14;96943.59;5032355;28;20738;-62
2021/08/10 01:37:38;;;;;;;4.10;2.40;;;;;;;16.58;70.46;96934.81;5033183;28;20187;-62
2021/08/10 01:40:09;;;;;;;2.13;1.90;;;;;;;16.67;70.25;96936.94;5031771;28;20226;-62
2021/08/10 01:42:38;;;;;;;3.17;2.13;;;;;;;16.71;69.94;96943.34;5031699;28;20285;-62
2021/08/10 01:45:05;;;;;;;5.60;1.93;;;;;;;16.41;71.05;96939.50;5032753;28;20253;-62
2021/08/10 01:47:32;;;;;;;2.23;1.83;;;;;;;16.46;71.64;96934.22;5031360;28;20714;-62
2021/08/10 01:49:59;;;;;;;2.00;1.80;;;;;;;16.39;72.49;96925.72;5032601;28;20185;-62
2021/08/10 01:52:27;;;;;;;4.20;2.10;;;;;;;16.52;72.37;96917.31;5032067;28;20179;-62
2021/08/10 01:54:53;;;;;;;3.20;2.10;;;;;;;16.44;72.79;96917.81;5031353;28;20205;-62
2021/08/10 01:57:19;;;;;;;2.33;2.10;;;;;;;16.49;72.73;96922.34;5030459;28;20326;-62
2021/08/10 01:59:51;;;;;;;3.77;2.27;;;;;;;16.79;71.52;96921.63;5032060;28;20171;-62
2021/08/10 02:02:17;;;;;;;2.37;2.03;;;;;;;16.86;71.02;96922.97;5032221;28;20190;-62
2021/08/10 02:04:44;;;;;;;2.37;2.10;;;;;;;16.71;71.53;96930.09;5031267;28;20186;-62
2021/08/10 02:07:11;;;;;;;3.00;1.90;;;;;;;16.57;72.32;96921.81;5032074;28;20190;-63
2021/08/10 02:09:37;;;;;;;2.83;1.90;;;;;;;16.59;72.36;96919.75;5031675;28;20531;-62
2021/08/10 02:12:04;;;;;;;2.30;2.03;;;;;;;16.50;72.80;96918.63;5032905;28;20194;-63
2021/08/10 02:14:30;;;;;;;2.00;1.80;;;;;;;16.35;73.45;96916.72;5031727;28;20202;-63
2021/08/10 02:17:01;;;;;;;1.73;1.63;;;;;;;16.46;72.99;96914.91;5030953;28;20222;-63
2021/08/10 02:19:28;;;;;;;2.10;1.90;;;;;;;16.37;73.71;96912.00;5030632;28;20316;-62
2021/08/10 02:22:05;;;;;;;2.50;2.10;;;;;;;16.57;72.77;96913.88;5026539;28;20183;-63
2021/08/10 02:24:52;;;;;;;5.83;1.90;;;;;;;16.55;73.09;96911.50;5031822;28;20186;-62
2021/08/10 02:27:27;;;;;;;2.20;2.00;;;;;;;16.47;73.31;96914.66;5025487;28;20316;-62
2021/08/10 02:29:54;;;;;;;2.20;2.00;;;;;;;16.34;74.29;96911.69;5031872;28;20631;-62
2021/08/10 02:32:26;;;;;;;2.40;2.20;;;;;;;16.43;73.73;96905.66;5030079;28;20194;-62
2021/08/10 02:34:52;;;;;;;2.10;2.00;;;;;;;16.35;74.38;96908.78;5031831;28;20546;-63
2021/08/10 02:37:19;;;;;;;2.10;2.00;;;;;;;16.41;73.88;96907.75;5030232;28;20662;-63
2021/08/10 02:39:48;;;;;;;2.20;2.10;;;;;;;16.38;73.91;96913.59;5031648;28;20254;-63
2021/08/10 02:42:16;;;;;;;3.23;2.10;;;;;;;16.31;74.31;96907.72;5029350;28;20221;-63
2021/08/10 02:44:43;;;;;;;6.37;2.07;;;;;;;16.25;74.63;96911.41;5013930;28;20782;-63
2021/08/10 02:47:10;;;;;;;2.30;1.80;;;;;;;16.38;74.25;96910.16;5030351;28;20247;-63
2021/08/10 02:49:35;;;;;;;2.50;2.30;;;;;;;16.31;74.45;96905.09;5030701;28;20214;-63
2021/08/10 02:52:00;;;;;;;2.30;2.10;;;;;;;16.19;75.22;96907.16;5030178;28;20214;-63
2021/08/10 02:54:26;;;;;;;2.43;2.23;;;;;;;16.23;74.86;96906.38;5029617;28;20198;-63
2021/08/10 02:57:00;;;;;;;2.30;2.10;;;;;;;16.17;74.98;96912.69;5030386;28;20639;-63
2021/08/10 02:59:39;;;;;;;2.60;2.10;;;;;;;16.21;74.96;96911.16;5029905;28;20179;-63
2021/08/10 03:02:12;;;;;;;2.47;2.27;;;;;;;16.36;74.40;96915.69;5031233;28;20182;-63
2021/08/10 03:04:49;;;;;;;2.83;2.30;;;;;;;16.20;75.08;96919.34;5030698;28;20179;-63
2021/08/10 03:07:15;;;;;;;2.40;2.20;;;;;;;16.02;75.77;96922.41;5031163;28;20182;-63
2021/08/10 03:09:41;;;;;;;3.67;2.53;;;;;;;16.16;75.29;96912.97;5031651;28;20236;-63
2021/08/10 03:12:09;;;;;;;5.10;2.30;;;;;;;16.24;74.89;96915.09;5030623;28;20209;-63
2021/08/10 03:14:35;;;;;;;3.87;2.60;;;;;;;16.13;75.14;96916.13;5031478;28;20198;-63
2021/08/10 03:17:06;;;;;;;3.23;2.50;;;;;;;16.04;75.66;96915.84;5030158;28;20233;-62
2021/08/10 03:19:35;;;;;;;2.60;2.40;;;;;;;16.02;76.06;96917.13;5030161;28;20170;-62
2021/08/10 03:22:01;;;;;;;2.40;2.20;;;;;;;15.86;76.50;96910.19;5029531;28;20194;-62
2021/08/10 03:24:28;;;;;;;2.70;2.20;;;;;;;15.91;76.13;96907.56;5030665;28;20338;-64
2021/08/10 03:26:56;;;;;;;4.13;2.37;;;;;;;15.86;76.29;96910.97;5013965;28;20675;-62
2021/08/10 03:29:22;;;;;;;2.90;2.40;;;;;;;15.93;76.07;96910.75;5030468;28;20186;-62
2021/08/10 03:31:48;;;;;;;3.90;2.30;;;;;;;15.79;76.52;96908.56;5031344;28;20185;-62
2021/08/10 03:34:16;;;;;;;3.10;2.53;;;;;;;15.87;76.30;96912.56;5028165;28;20273;-62
2021/08/10 03:36:43;;;;;;;4.20;2.63;;;;;;;15.84;76.40;96912.28;5013602;28;20189;-62
2021/08/10 03:39:11;;;;;;;4.73;2.60;;;;;;;15.70;77.03;96912.75;5028926;28;20251;-62
2021/08/10 03:41:38;;;;;;;2.43;2.20;;;;;;;15.80;76.78;96914.63;5030620;28;20277;-62
2021/08/10 03:44:04;;;;;;;3.00;2.37;;;;;;;15.77;76.72;96917.81;5030991;28;20186;-62
2021/08/10 03:46:31;;;;;;;3.00;2.50;;;;;;;15.84;76.57;96918.34;5028481;28;20244;-62
2021/08/10 03:48:56;;;;;;;2.40;2.20;;;;;;;15.85;76.52;96914.66;5030046;28;20198;-62
2021/08/10 03:51:23;;;;;;;3.47;2.60;;;;;;;15.79;76.71;96913.84;5030337;28;20261;-62
2021/08/10 03:53:49;;;;;;;2.70;2.50;;;;;;;15.71;76.99;96909.06;5015991;28;20780;-62
2021/08/10 03:56:16;;;;;;;3.77;2.53;;;;;;;15.74;76.63;96911.19;5032406;28;20742;-62
2021/08/10 03:58:42;;;;;;;2.83;2.17;;;;;;;15.72;77.04;96909.81;5035180;28;20656;-63
2021/08/10 04:01:10;;;;;;;2.57;2.37;;;;;;;15.76;76.82;96910.94;5034824;28;20194;-62
2021/08/10 04:03:37;;;;;;;2.60;2.40;;;;;;;15.79;76.89;96911.19;5034270;28;20651;-62
2021/08/10 04:06:05;;;;;;;2.37;2.17;;;;;;;15.58;77.99;96911.34;5033524;28;20543;-62
2021/08/10 04:08:31;;;;;;;5.93;2.60;;;;;;;15.57;78.10;96907.91;5034037;28;20216;-62
2021/08/10 04:10:57;;;;;;;3.13;2.73;;;;;;;15.84;76.99;96920.19;5035101;28;20216;-62
2021/08/10 04:13:24;;;;;;;4.50;2.90;;;;;;;15.80;76.94;96912.78;5033406;28;20655;-63
2021/08/10 04:15:51;;;;;;;3.47;2.90;;;;;;;15.55;78.06;96914.50;5034569;28;20205;-63
2021/08/10 04:18:22;;;;;;;3.27;2.70;;;;;;;15.51;78.16;96914.16;5033165;28;20191;-63
2021/08/10 04:20:52;;;;;;;5.30;2.70;;;;;;;15.62;77.80;96922.97;5032865;28;20665;-64
2021/08/10 04:23:19;;;;;;;4.60;2.43;;;;;;;15.50;78.31;96924.97;5033799;28;20171;-63
2021/08/10 04:25:45;;;;;;;3.63;2.60;;;;;;;15.39;79.00;96924.13;5032676;28;20214;-63
2021/08/10 04:28:11;;;;;;;2.37;2.17;;;;;;;15.52;78.64;96934.28;5034434;28;20210;-63
2021/08/10 04:30:38;;;;;;;6.20;2.60;;;;;;;15.62;78.20;96926.41;5034327;28;20193;-63
2021/08/10 04:33:04;;;;;;;4.80;2.50;;;;;;;15.70;77.82;96933.09;5035021;28;20190;-64
2021/08/10 04:35:30;;;;;;;3.70;2.10;;;;;;;15.70;78.05;96935.72;5031677;28;20209;-64
2021/08/10 04:37:55;;;;;;;2.60;2.40;;;;;;;15.89;77.44;96938.72;5034202;28;20187;-64
2021/08/10 04:40:21;;;;;;;2.97;2.60;;;;;;;16.04;76.75;96944.13;5033470;28;20257;-64
2021/08/10 04:42:47;;;;;;;3.37;2.77;;;;;;;16.03;76.68;96939.88;5033186;28;20218;-64
2021/08/10 04:45:12;;;;;;;4.77;2.40;;;;;;;16.02;76.86;96935.63;5034051;28;20528;-64
2021/08/10 04:47:38;;;;;;;2.80;2.30;;;;;;;16.23;75.94;96940.75;5034430;28;20210;-64
2021/08/10 04:50:04;;;;;;;3.37;2.33;;;;;;;16.37;75.58;96945.59;5034068;28;20191;-64
2021/08/10 04:52:29;;;;;;;2.87;2.07;;;;;;;16.42;75.12;96956.19;5033214;28;20196;-64
2021/08/10 04:54:57;;;;;;;3.07;2.23;;;;;;;16.54;74.62;96956.75;5032485;28;20203;-64
2021/08/10 04:57:23;;;;;;;2.43;2.00;;;;;;;16.62;74.58;96958.91;5031376;28;20178;-65
2021/08/10 04:59:50;;;;;;;3.27;2.17;;;;;;;16.67;74.46;96948.34;5016487;28;20305;-62
2021/08/10 05:02:16;;;;;;;3.10;2.60;;;;;;;16.85;73.36;96947.06;5033239;28;20191;-64
2021/08/10 05:04:42;;;;;;;2.90;2.23;;;;;;;16.87;73.30;96944.97;5031385;28;20289;-62
2021/08/10 05:07:08;;;;;;;6.10;2.60;;;;;;;17.01;72.88;96938.06;5033922;28;20191;-62
2021/08/10 05:09:33;;;;;;;3.23;2.50;;;;;;;17.07;72.30;96941.53;5033003;28;20197;-62
2021/08/10 05:11:59;;;;;;;3.03;2.20;;;;;;;17.00;72.39;96947.88;5033003;28;20210;-62
2021/08/10 05:14:24;;;;;;;5.73;1.93;;;;;;;17.19;71.85;96947.38;5032898;28;20274;-62
2021/08/10 05:16:50;;;;;;;3.67;2.50;;;;;;;17.19;72.29;96944.72;5032231;28;20183;-64
2021/08/10 05:19:15;;;;;;;5.13;2.00;;;;;;;17.38;71.90;96945.78;5030006;28;20190;-63
2021/08/10 05:21:41;;;;;;;3.43;2.47;;;;;;;17.42;71.14;96950.28;5033172;28;20257;-63
2021/08/10 05:24:07;;;;;;;3.30;2.10;;;;;;;17.48;70.29;96953.75;5033686;28;20186;-62
2021/08/10 05:26:32;;;;;;;4.50;2.10;;;;;;;17.50;69.73;96948.19;5030948;28;20666;-63
2021/08/10 05:28:58;;;;;;;2.57;2.10;;;;;;;17.60;69.47;96949.00;5033617;28;20547;-63
2021/08/10 05:31:23;;;;;;;2.87;2.20;;;;;;;17.60;69.23;96956.16;5031071;28;20785;-63
2021/08/10 05:33:49;;;;;;;2.97;1.87;;;;;;;17.70;69.06;96954.28;5033604;28;20269;-62
2021/08/10 05:36:14;;;;;;;2.50;2.20;;;;;;;17.74;68.38;96957.97;5032296;28;20191;-63
2021/08/10 05:38:43;;;;;;;2.73;1.90;;;;;;;17.85;68.23;96964.06;5032986;28;20620;-62
2021/08/10 05:41:09;;;;;;;2.27;2.07;;;;;;;17.86;68.03;96977.06;5032866;28;20190;-63
2021/08/10 05:43:34;;;;;;;4.23;2.03;;;;;;;17.93;67.92;96963.53;5032108;28;20178;-63
2021/08/10 05:46:00;;;;;;;2.87;1.90;;;;;;;17.90;67.98;96969.34;5030772;28;20186;-63
2021/08/10 05:48:25;;;;;;;2.33;2.13;;;;;;;17.89;67.62;96962.44;5030469;28;20265;-63
2021/08/10 05:50:50;;;;;;;2.80;1.97;;;;;;;18.07;67.20;96964.53;5032141;28;20209;-63
2021/08/10 05:53:16;;;;;;;3.27;2.10;;;;;;;18.08;67.14;96971.44;5031781;28;20191;-62
2021/08/10 05:55:41;;;;;;;3.27;1.93;;;;;;;18.32;66.62;96968.97;5030730;28;20206;-62
2021/08/10 05:58:07;;;;;;;2.43;1.70;;;;;;;18.44;65.65;96969.47;5032244;28;20190;-63
2021/08/10 06:00:32;;;;;;;2.80;1.67;;;;;;;18.38;66.44;96967.09;5031868;28;20190;-63
2021/08/10 06:02:58;;;;;;;1.77;1.67;;;;;;;18.56;65.72;96966.50;5030988;28;20178;-64
2021/08/10 06:05:23;;;;;;;4.03;2.27;;;;;;;18.65;65.05;96971.00;5031424;28;20190;-64
2021/08/10 06:07:49;;;;;;;2.53;2.17;;;;;;;18.67;64.95;96968.84;5030757;28;20183;-64
2021/08/10 06:10:14;;;;;;;2.90;1.80;;;;;;;18.80;64.68;96967.44;5031719;28;20237;-63
2021/08/10 06:12:39;;;;;;;3.80;2.27;;;;;;;18.72;65.10;96970.69;5030152;28;20557;-63
2021/08/10 06:15:05;;;;;;;5.25;1.92;;;;;;;18.86;64.93;96976.97;5031769;28;20210;-63
2021/08/10 06:17:31;;;;;;;3.50;1.90;;;;;;;19.07;64.41;96967.00;5030307;28;20186;-64
2021/08/10 06:19:58;;;;;;;2.93;1.97;;;;;;;19.17;64.33;96966.94;5029861;28;20183;-63
2021/08/10 06:22:23;;;;;;;2.08;1.88;;;;;;;19.24;64.33;96970.09;5031074;28;20209;-63
2021/08/10 06:24:48;;;;;;;1.90;1.80;;;;;;;19.44;64.18;96963.84;5030803;28;20187;-73
2021/08/10 06:27:14;;;;;;;2.72;2.00;;;;;;;19.53;63.64;96964.84;5031317;28;20207;-63
2021/08/10 06:29:39;;;;;;;2.22;1.67;;;;;;;19.75;63.32;96967.84;5031379;28;20663;-61
2021/08/10 06:32:05;;;;;;;2.28;1.92;;;;;;;19.87;62.73;96968.25;5030086;28;20218;-62
2021/08/10 06:34:31;;;;;;;3.40;2.00;;;;;;;20.08;62.04;96960.06;5029189;28;20781;-67
2021/08/10 06:36:57;;;;;;;2.20;2.00;;;;;;;20.21;61.41;96962.84;5031226;28;20190;-64
2021/08/10 06:39:22;;;;;;;3.28;1.60;;;;;;;20.41;60.85;96958.38;5031039;28;20223;-64
2021/08/10 06:41:48;;;;;;;2.15;1.73;;;;;;;20.52;60.71;96971.28;5030624;28;20244;-67
2021/08/10 06:44:13;;;;;;;2.30;2.10;;;;;;;20.62;61.32;96971.16;5030585;28;20191;-68
2021/08/10 06:46:39;;;;;;;2.78;2.22;;;;;;;20.58;61.64;96972.00;5029751;28;20647;-64
2021/08/10 06:49:04;;;;;;;2.85;2.08;;;;;;;20.57;61.55;96970.44;5031793;28;20332;-63
2021/08/10 06:51:30;;;;;;;2.97;2.42;;;;;;;20.72;62.01;96968.38;5029516;28;20186;-64
2021/08/10 06:53:55;;;;;;;5.70;2.80;;;;;;;20.92;61.52;96966.50;5030215;28;20194;-63
2021/08/10 06:56:21;;;;;;;4.30;2.35;;;;;;;21.11;61.01;96962.78;5029768;28;20625;-65
2021/08/10 06:58:46;;;;;;;3.17;2.30;;;;;;;20.93;61.60;96960.09;5031779;28;20183;-62
2021/08/10 07:01:11;;;;;;;3.83;2.63;;;;;;;20.98;61.63;96960.81;5031747;28;20598;-62
2021/08/10 07:03:37;;;;;;;5.70;2.40;;;;;;;20.99;61.74;96965.06;5029824;28;20289;-62
2021/08/10 07:06:03;;;;;;;3.05;2.22;;;;;;;21.00;61.41;96964.00;5031155;28;20194;-62
2021/08/10 07:08:28;;;;;;;2.63;2.35;;;;;;;21.37;60.65;96959.75;5029205;28;20194;-62
2021/08/10 07:10:54;;;;;;;3.20;2.40;;;;;;;21.74;59.25;96959.63;5031296;28;20723;-63
2021/08/10 07:13:19;;;;;;;5.97;2.40;;;;;;;21.60;59.48;96956.16;5029291;28;20183;-63
2021/08/10 07:15:45;;;;;;;4.18;2.42;;;;;;;21.74;59.42;96961.50;5031475;28;20194;-63
2021/08/10 07:18:10;;;;;;;3.08;2.53;;;;;;;22.03;58.28;96956.75;5028539;28;20182;-62
2021/08/10 07:20:36;;;;;;;4.50;2.22;;;;;;;21.80;58.35;96966.47;5029516;28;20193;-64
2021/08/10 07:23:01;;;;;;;2.90;2.10;;;;;;;21.96;57.92;96967.81;5029737;28;20531;-64
2021/08/10 07:25:27;;;;;;;7.18;2.20;;;;;;;22.14;57.34;96965.34;5029264;28;20183;-64
2021/08/10 07:27:52;;;;;;;1.95;1.83;;;;;;;22.50;56.48;96957.44;5031083;28;20190;-64
2021/08/10 07:30:18;;;;;;;2.10;1.90;;;;;;;22.90;55.37;96947.81;5029280;28;20187;-65
2021/08/10 07:32:44;;;;;;;2.60;2.10;;;;;;;22.83;55.73;96950.91;5031329;28;20210;-64
2021/08/10 07:35:10;;;;;;;2.20;2.03;;;;;;;22.80;55.26;96952.28;5030764;28;20551;-64
2021/08/10 07:37:43;;;;;;;2.67;2.03;;;;;;;22.82;55.51;96945.84;5029013;28;20697;-65
2021/08/10 07:40:11;;;;;;;2.50;2.30;;;;;;;22.87;55.44;96940.38;5031241;28;20295;-64
2021/08/10 07:42:37;;;;;;;2.70;1.90;;;;;;;22.81;55.44;96942.38;5030264;28;20191;-65
2021/08/10 07:45:03;;;;;;;3.75;2.17;;;;;;;22.82;55.33;96946.63;5030095;28;20213;-64
2021/08/10 07:47:29;;;;;;;2.22;2.03;;;;;;;22.66;55.35;96951.50;5029364;28;20667;-64
2021/08/10 07:49:54;;;;;;;4.32;2.70;;;;;;;22.36;57.38;96942.22;5031025;28;20253;-64
2021/08/10 07:52:20;;;;;;;3.35;2.50;;;;;;;22.29;57.77;96939.16;5029897;28;20198;-64
2021/08/10 07:54:45;;;;;;;5.03;2.50;;;;;;;22.33;57.46;96942.81;5030378;28;20229;-64
2021/08/10 07:57:11;;;;;;;3.75;2.17;;;;;;;22.63;56.71;96929.91;5030593;28;20232;-64
2021/08/10 07:59:36;;;;;;;3.33;2.38;;;;;;;22.73;56.71;96933.22;5030536;28;20193;-64
2021/08/10 08:02:02;;;;;;;4.07;2.10;;;;;;;22.82;56.41;96927.94;5029786;28;20648;-64
2021/08/10 08:04:27;;;;;;;2.30;2.10;;;;;;;23.13;56.05;96928.00;5057488;28;20331;-64
2021/08/10 08:06:52;;;;;;;3.90;1.98;;;;;;;23.02;56.09;96927.47;5029369;28;20182;-64
2021/08/10 08:09:18;;;;;;;6.32;2.33;;;;;;;22.99;56.05;96921.94;5028851;28;20186;-64
2021/08/10 08:11:43;;;;;;;2.28;2.08;;;;;;;23.02;55.95;96913.28;5030081;28;20198;-63
2021/08/10 08:14:09;;;;;;;4.97;2.22;;;;;;;23.03;55.96;96915.69;5030929;28;20183;-63
2021/08/10 08:16:34;;;;;;;4.25;2.50;;;;;;;23.07;56.60;96918.56;5030225;28;20813;-63
2021/08/10 08:18:59;;;;;;;5.13;2.53;;;;;;;22.74;57.62;96918.72;5028980;28;20195;-63
2021/08/10 08:21:25;;;;;;;3.17;2.05;;;;;;;22.82;57.65;96921.78;5029962;28;20195;-63
2021/08/10 08:23:51;;;;;;;2.30;2.10;;;;;;;22.89;57.02;96914.94;5030764;28;20553;-63
2021/08/10 08:26:19;;;;;;;3.55;1.73;;;;;;;23.08;55.62;96909.41;5030116;28;20191;-66
2021/08/10 08:28:44;;;;;;;1.70;1.58;;;;;;;23.40;54.84;96911.06;5030966;28;20236;-63
2021/08/10 08:31:10;;;;;;;1.98;1.70;;;;;;;23.60;54.79;96910.56;5030543;28;20269;-63
2021/08/10 08:33:35;;;;;;;3.03;1.77;;;;;;;23.48;54.52;96905.78;5029741;28;20190;-63
2021/08/10 08:36:01;;;;;;;2.10;1.67;;;;;;;23.40;54.61;96908.41;5029410;28;20336;-63
2021/08/10 08:38:26;;;;;;;3.30;2.00;;;;;;;23.27;55.13;96904.69;5029950;28;20191;-63
2021/08/10 08:40:53;;;;;;;1.60;1.50;;;;;;;23.15;55.30;96915.13;5032505;28;20237;-63
2021/08/10 08:43:19;;;;;;;2.28;1.67;;;;;;;23.32;55.36;96912.59;5033378;28;20232;-65
2021/08/10 08:45:45;;;;;;;1.85;1.75;;;;;;;23.19;54.96;96911.53;5034551;28;20293;-63
2021/08/10 08:48:14;;;;;;;2.20;1.60;;;;;;;23.35;54.98;96906.59;5032506;28;20297;-64
2021/08/10 08:50:41;;;;;;;2.92;2.03;;;;;;;23.50;54.69;96916.97;5033974;28;20183;-63
2021/08/10 08:53:11;;;;;;;2.50;1.60;;;;;;;23.95;53.17;96911.53;5034308;28;20187;-63
2021/08/10 08:55:37;;;;;;;1.77;1.60;;;;;;;24.07;53.05;96913.63;5031441;28;20289;-63
2021/08/10 08:58:03;;;;;;;1.50;1.40;;;;;;;24.19;52.32;96917.31;5032865;28;20281;-63
2021/08/10 09:00:28;;;;;;;2.45;1.60;;;;;;;24.20;51.99;96913.53;5032960;28;20285;-63
2021/08/10 09:02:54;;;;;;;2.40;1.45;;;;;;;24.72;51.20;96927.84;5034186;28;20255;-63
2021/08/10 09:05:19;;;;;;;4.63;2.08;;;;;;;25.08;49.71;96926.78;5033136;28;20656;-63
2021/08/10 09:07:45;;;;;;;2.00;1.70;;;;;;;25.51;48.24;96924.84;5033507;28;20179;-62
2021/08/10 09:10:13;;;;;;;1.60;1.50;;;;;;;25.44;48.07;96934.50;5033896;28;20652;-63
2021/08/10 09:12:59;;;;;;;1.67;1.35;;;;;;;25.71;47.31;96939.50;5032826;28;20280;-62
2021/08/10 09:15:37;;;;;;;1.98;1.60;;;;;;;25.74;47.49;96938.91;5018223;28;20217;-62
2021/08/10 09:18:11;;;;;;;2.33;1.50;;;;;;;25.61;47.68;96942.53;5033595;28;20241;-62
2021/08/10 09:20:38;;;;;;;1.63;1.52;;;;;;;25.76;46.99;96942.03;5032348;28;20418;-62
2021/08/10 09:23:04;;;;;;;1.45;1.35;;;;;;;26.06;46.07;96943.69;5033168;28;20300;-63
2021/08/10 09:25:32;;;;;;;2.03;1.30;;;;;;;26.19;45.39;96944.59;5032728;28;20205;-62
2021/08/10 09:28:09;;;;;;;2.15;1.45;;;;;;;26.26;45.28;96936.81;5033592;28;20178;-62
2021/08/10 09:30:35;;;;;;;1.75;1.27;;;;;;;26.27;44.38;96924.16;5032288;28;20325;-62
2021/08/10 09:33:07;;;;;;;1.60;1.50;;;;;;;26.19;44.70;96933.84;5033228;28;20194;-62
2021/08/10 09:35:35;;;;;;;1.98;1.55;;;;;;;26.25;45.05;96940.59;5032181;28;20214;-62
2021/08/10 09:38:02;;;;;;;2.33;1.90;;;;;;;26.17;45.37;96932.56;5032080;28;20182;-62
2021/08/10 09:40:30;;;;;;;5.20;2.70;;;;;;;26.04;45.84;96939.72;5031105;28;20230;-62
2021/08/10 09:43:32;;;;;;;2.40;2.20;;;;;;;26.45;45.13;96931.81;5032934;28;20179;-61
2021/08/10 09:46:05;;;;;;;7.35;3.10;;;;;;;26.68;44.52;96931.53;5031349;28;20194;-61
2021/08/10 09:48:31;;;;;;;5.80;2.30;;;;;;;27.04;43.66;96930.97;5031861;28;20189;-62
2021/08/10 09:51:13;;;;;;;1.75;1.48;;;;;;;27.20;42.65;96938.09;5031150;28;20190;-62
2021/08/10 09:53:40;;;;;;;1.50;1.40;;;;;;;27.21;41.75;96934.31;5031008;28;20175;-61
2021/08/10 09:56:06;;;;;;;1.45;1.27;;;;;;;27.20;41.77;96940.00;5031000;28;20224;-61
2021/08/10 09:58:56;;;;;;;1.55;1.45;;;;;;;27.15;41.46;96940.22;5031872;28;20707;-61
2021/08/10 10:01:33;;;;;;;1.33;1.23;;;;;;;27.40;41.21;96939.22;5017465;28;20206;-61
2021/08/10 10:04:21;;;;;;;2.65;1.60;;;;;;;27.71;40.71;96942.25;5032827;28;20198;-62
2021/08/10 10:06:51;;;;;;;1.40;1.30;;;;;;;27.13;40.97;96945.16;5032468;28;20193;-61
2021/08/10 10:09:18;;;;;;;1.83;1.50;;;;;;;27.13;40.77;96937.88;5017084;28;20187;-63
2021/08/10 10:11:45;;;;;;;1.27;1.00;;;;;;;26.91;40.49;96948.19;5032571;28;20265;-60
2021/08/10 10:14:12;;;;;;;2.42;1.27;;;;;;;25.81;43.07;96936.47;5032744;28;20186;-60
2021/08/10 10:16:49;;;;;;;1.33;1.23;;;;;;;26.31;41.97;96933.94;5031342;28;20714;-63
2021/08/10 10:19:17;;;;;;;1.67;1.23;;;;;;;26.43;42.00;96935.94;5017054;28;20179;-66
2021/08/10 10:21:54;;;;;;;1.48;1.30;;;;;;;27.13;41.22;96932.50;5033133;28;20182;-62
2021/08/10 10:24:21;;;;;;;1.00;1.00;;;;;;;27.87;39.61;96928.91;5029867;28;20194;-63
2021/08/10 10:27:02;;;;;;;1.10;1.10;;;;;;;28.20;38.23;96942.34;5031126;28;20652;-62
2021/08/10 10:29:28;;;;;;;1.05;1.05;;;;;;;27.83;38.07;96935.31;5026970;28;20608;-62
2021/08/10 10:31:54;;;;;;;1.45;1.30;;;;;;;27.47;38.53;96941.38;5031909;28;20237;-62
2021/08/10 10:34:20;;;;;;;1.40;1.30;;;;;;;27.03;39.61;96940.94;5029986;28;20237;-64
2021/08/10 10:36:48;;;;;;;2.58;1.30;;;;;;;27.34;39.22;96935.16;5031882;28;20252;-61
2021/08/10 10:39:22;;;;;;;1.73;1.13;;;;;;;27.44;39.20;96934.72;5031236;28;20202;-62
2021/08/10 10:41:48;;;;;;;1.98;1.08;;;;;;;27.49;38.69;96934.53;5031207;28;20543;-62
2021/08/10 10:44:13;;;;;;;1.52;1.10;;;;;;;27.07;39.54;96927.63;5031122;28;20187;-64
2021/08/10 10:46:40;;;;;;;1.73;1.33;;;;;;;26.64;40.85;96931.38;5030673;28;20194;-62
2021/08/10 10:49:08;;;;;;;1.25;1.15;;;;;;;27.24;40.23;96932.88;5031537;28;20703;-62
2021/08/10 10:51:38;;;;;;;1.40;1.30;;;;;;;27.72;38.90;96932.25;5029611;28;20190;-62
2021/08/10 10:54:25;;;;;;;1.95;1.23;;;;;;;28.40;38.28;96922.59;5031293;28;20301;-62
2021/08/10 10:56:56;;;;;;;2.40;1.27;;;;;;;28.79;37.39;96929.19;5030408;28;20550;-62
2021/08/10 10:59:33;;;;;;;1.52;1.27;;;;;;;28.83;36.40;96926.59;5031077;28;20620;-62
2021/08/10 11:02:25;;;;;;;1.70;1.30;;;;;;;28.44;37.92;96923.47;5031557;28;20174;-61
2021/08/10 11:05:21;;;;;;;1.42;1.20;;;;;;;28.08;39.09;96926.16;5031020;28;20179;-61
2021/08/10 11:07:52;;;;;;;1.35;1.13;;;;;;;28.35;38.64;96933.59;5032299;28;20273;-62
2021/08/10 11:10:37;;;;;;;1.52;1.30;;;;;;;27.68;40.07;96926.75;5031068;28;20301;-66
2021/08/10 11:13:05;;;;;;;1.60;1.30;;;;;;;26.73;41.83;96931.34;5030197;28;20187;-62
2021/08/10 11:15:46;;;;;;;2.25;1.58;;;;;;;26.49;42.77;96921.19;5028553;28;20747;-61
2021/08/10 11:18:11;;;;;;;1.63;1.52;;;;;;;26.38;42.95;96920.78;5016010;28;20190;-61
2021/08/10 11:20:42;;;;;;;1.88;1.45;;;;;;;26.09;43.72;96926.09;5030366;28;20650;-61
2021/08/10 11:23:28;;;;;;;1.40;1.30;;;;;;;26.15;43.59;96927.50;5031352;28;20187;-62
2021/08/10 11:26:13;;;;;;;1.45;1.30;;;;;;;26.55;42.46;96922.59;5029326;28;20197;-61
2021/08/10 11:28:47;;;;;;;1.65;1.40;;;;;;;26.88;42.12;96920.81;5015011;28;20249;-61
2021/08/10 11:31:41;;;;;;;2.25;1.48;;;;;;;27.21;42.08;96926.22;5031270;28;20328;-61
2021/08/10 11:34:37;;;;;;;1.77;1.40;;;;;;;27.14;41.43;96922.50;5030932;28;20174;-61
2021/08/10 11:37:22;;;;;;;2.50;1.50;;;;;;;26.19;44.03;96922.28;5029725;28;20620;-61
2021/08/10 11:40:11;;;;;;;2.15;1.52;;;;;;;26.29;43.68;96922.75;5030447;28;20233;-61